Time;durP1;ratioP1;P1;durP2;ratioP2;P2;SDS_P1;SDS_P2;PMS_P1;PMS_P2;Temp;Humidity;BMP_temperature;BMP_pressure;BME280_temperature;BME280_humidity;BME280_pressure;Samples;Min_cycle;Max_cycle;Signal;HPM_P1;HPM_P2
2024/04/14 00:01:29;;;;;;;1.33;1.23;;;;;;;;;;5663671;25;20276;-52
2024/04/14 00:03:59;;;;;;;1.50;1.40;;;;;;;;;;5670538;25;20262;-49
2024/04/14 00:06:26;;;;;;;1.50;1.40;;;;;;;;;;5675116;25;20216;-54
2024/04/14 00:08:55;;;;;;;1.13;1.08;;;;;;;;;;5675099;25;20568;-52
2024/04/14 00:11:22;;;;;;;1.50;1.40;;;;;;;;;;5664085;25;20224;-49
2024/04/14 00:13:54;;;;;;;2.95;1.48;;;;;;;;;;5675333;25;20318;-49
2024/04/14 00:16:21;;;;;;;1.48;1.38;;;;;;;;;;5674857;25;20474;-50
2024/04/14 00:18:50;;;;;;;2.28;2.10;;;;;;;;;;5674846;25;20246;-53
2024/04/14 00:21:18;;;;;;;1.40;1.30;;;;;;;;;;5663459;25;20226;-54
2024/04/14 00:23:47;;;;;;;1.42;1.42;;;;;;;;;;5663199;25;20316;-51
2024/04/14 00:26:13;;;;;;;1.50;1.40;;;;;;;;;;5670411;25;20255;-49
2024/04/14 00:28:44;;;;;;;2.33;1.77;;;;;;;;;;5674918;25;20228;-51
2024/04/14 00:31:13;;;;;;;1.77;1.67;;;;;;;;;;5676533;25;20271;-51
2024/04/14 00:33:42;;;;;;;1.95;1.85;;;;;;;;;;5678368;25;20280;-51
2024/04/14 00:36:09;;;;;;;1.35;1.23;;;;;;;;;;5678599;25;20703;-52
2024/04/14 00:38:38;;;;;;;2.05;1.17;;;;;;;;;;5678504;25;20275;-54
2024/04/14 00:41:04;;;;;;;1.70;1.38;;;;;;;;;;5662659;25;20223;-50
2024/04/14 00:43:34;;;;;;;1.42;1.33;;;;;;;;;;5667069;25;20718;-51
2024/04/14 00:46:00;;;;;;;1.50;1.40;;;;;;;;;;5678627;25;20223;-50
2024/04/14 00:48:32;;;;;;;2.17;1.42;;;;;;;;;;5678449;25;20271;-49
2024/04/14 00:50:59;;;;;;;1.40;1.30;;;;;;;;;;5668655;25;20224;-49
2024/04/14 00:53:28;;;;;;;2.63;2.17;;;;;;;;;;5673238;25;20298;-50
2024/04/14 00:55:54;;;;;;;1.85;1.73;;;;;;;;;;5678353;25;20553;-51
2024/04/14 00:58:24;;;;;;;1.65;1.30;;;;;;;;;;5668705;25;20221;-53
2024/04/14 01:00:50;;;;;;;1.60;1.50;;;;;;;;;;5668787;25;20270;-49
2024/04/14 01:03:20;;;;;;;1.80;1.70;;;;;;;;;;5677595;25;20356;-51
2024/04/14 01:05:49;;;;;;;2.08;1.90;;;;;;;;;;5678311;25;20359;-51
2024/04/14 01:08:18;;;;;;;1.65;1.55;;;;;;;;;;5678176;25;20564;-51
2024/04/14 01:10:45;;;;;;;1.70;1.35;;;;;;;;;;5667136;25;20224;-51
2024/04/14 01:13:14;;;;;;;1.90;1.80;;;;;;;;;;5677527;25;20270;-52
2024/04/14 01:15:41;;;;;;;1.70;1.60;;;;;;;;;;5678012;25;20255;-52
2024/04/14 01:18:10;;;;;;;2.35;2.05;;;;;;;;;;5677928;25;20623;-52
2024/04/14 01:20:37;;;;;;;2.35;1.60;;;;;;;;;;5677998;25;20224;-54
2024/04/14 01:23:09;;;;;;;1.50;1.40;;;;;;;;;;5677918;25;20322;-50
2024/04/14 01:25:38;;;;;;;1.60;1.50;;;;;;;;;;5673182;25;20263;-51
2024/04/14 01:28:08;;;;;;;1.85;1.75;;;;;;;;;;5678052;25;20287;-48
2024/04/14 01:30:34;;;;;;;1.63;1.52;;;;;;;;;;5678523;25;20550;-48
2024/04/14 01:33:03;;;;;;;1.70;1.60;;;;;;;;;;5678030;25;20231;-53
2024/04/14 01:35:30;;;;;;;2.75;1.60;;;;;;;;;;5677416;25;20573;-50
2024/04/14 01:37:59;;;;;;;2.25;1.88;;;;;;;;;;5677812;25;20581;-50
2024/04/14 01:40:25;;;;;;;1.58;1.35;;;;;;;;;;5655448;25;20956;-52
2024/04/14 01:42:57;;;;;;;1.38;1.27;;;;;;;;;;5674555;25;20270;-50
2024/04/14 01:45:24;;;;;;;1.40;1.30;;;;;;;;;;5675556;25;20219;-51
2024/04/14 01:47:53;;;;;;;1.90;1.80;;;;;;;;;;5677537;25;20255;-50
2024/04/14 01:50:20;;;;;;;3.00;2.05;;;;;;;;;;5677497;25;20219;-53
2024/04/14 01:52:49;;;;;;;3.30;2.20;;;;;;;;;;5677347;25;20262;-50
2024/04/14 01:55:16;;;;;;;1.85;1.75;;;;;;;;;;5673029;25;20223;-51
2024/04/14 01:57:45;;;;;;;3.15;1.88;;;;;;;;;;5672425;25;20691;-50
2024/04/14 02:00:15;;;;;;;1.67;1.58;;;;;;;;;;5677499;25;20258;-52
2024/04/14 02:02:45;;;;;;;2.28;2.08;;;;;;;;;;5677025;25;20734;-50
2024/04/14 02:05:11;;;;;;;1.70;1.60;;;;;;;;;;5666975;25;20262;-51
2024/04/14 02:07:40;;;;;;;1.48;1.38;;;;;;;;;;5677220;25;20322;-49
2024/04/14 02:10:07;;;;;;;1.63;1.52;;;;;;;;;;5665888;25;20221;-50
2024/04/14 02:12:36;;;;;;;2.03;1.83;;;;;;;;;;5677020;25;20224;-50
2024/04/14 02:15:03;;;;;;;1.60;1.40;;;;;;;;;;5677291;25;20258;-50
2024/04/14 02:17:35;;;;;;;1.55;1.45;;;;;;;;;;5677167;25;20224;-53
2024/04/14 02:20:02;;;;;;;1.92;1.83;;;;;;;;;;5656005;25;20225;-50
2024/04/14 02:22:31;;;;;;;1.45;1.35;;;;;;;;;;5676978;25;20239;-49
2024/04/14 02:24:57;;;;;;;2.33;2.05;;;;;;;;;;5676757;25;20259;-51
2024/04/14 02:27:26;;;;;;;2.30;2.10;;;;;;;;;;5676789;25;20228;-51
2024/04/14 02:29:53;;;;;;;2.45;1.80;;;;;;;;;;5677147;25;20220;-51
2024/04/14 02:32:25;;;;;;;2.60;2.30;;;;;;;;;;5676656;25;20350;-50
2024/04/14 02:34:54;;;;;;;2.45;2.00;;;;;;;;;;5676575;25;20567;-50
2024/04/14 02:37:23;;;;;;;2.22;2.05;;;;;;;;;;5676985;25;20758;-50
2024/04/14 02:39:49;;;;;;;4.72;2.30;;;;;;;;;;5665107;25;20728;-50
2024/04/14 02:42:18;;;;;;;3.28;2.60;;;;;;;;;;5676566;25;20654;-50
2024/04/14 02:44:45;;;;;;;2.70;2.50;;;;;;;;;;5676592;25;20715;-51
2024/04/14 02:47:14;;;;;;;1.95;1.85;;;;;;;;;;5676529;25;20676;-50
2024/04/14 02:49:40;;;;;;;2.25;2.05;;;;;;;;;;5676815;25;20808;-50
2024/04/14 02:52:12;;;;;;;3.08;1.80;;;;;;;;;;5676683;25;20270;-50
2024/04/14 02:54:39;;;;;;;3.78;2.15;;;;;;;;;;5675657;25;20267;-52
2024/04/14 02:57:08;;;;;;;2.03;1.80;;;;;;;;;;5676629;25;20220;-50
2024/04/14 02:59:34;;;;;;;2.30;1.90;;;;;;;;;;5660279;25;20220;-51
2024/04/14 03:02:03;;;;;;;1.95;1.75;;;;;;;;;;5675977;25;20322;-49
2024/04/14 03:04:30;;;;;;;2.05;1.80;;;;;;;;;;5676298;25;20216;-50
2024/04/14 03:06:59;;;;;;;7.75;2.28;;;;;;;;;;5670942;25;20691;-53
2024/04/14 03:09:28;;;;;;;2.72;1.90;;;;;;;;;;5656283;25;20243;-50
2024/04/14 03:11:58;;;;;;;2.78;1.85;;;;;;;;;;5670605;25;20291;-51
2024/04/14 03:14:24;;;;;;;2.63;1.60;;;;;;;;;;5675187;25;20322;-52
2024/04/14 03:16:53;;;;;;;1.75;1.65;;;;;;;;;;5675848;25;20279;-51
2024/04/14 03:19:20;;;;;;;1.88;1.77;;;;;;;;;;5661863;25;20258;-52
2024/04/14 03:21:50;;;;;;;2.78;2.28;;;;;;;;;;5668493;25;20263;-50
2024/04/14 03:24:16;;;;;;;2.80;1.95;;;;;;;;;;5670989;25;20279;-51
2024/04/14 03:26:48;;;;;;;2.78;1.60;;;;;;;;;;5670733;25;20224;-50
2024/04/14 03:29:15;;;;;;;2.10;1.67;;;;;;;;;;5670756;25;20220;-51
2024/04/14 03:31:44;;;;;;;2.35;2.10;;;;;;;;;;5675517;25;20227;-51
2024/04/14 03:34:11;;;;;;;2.53;1.92;;;;;;;;;;5664497;25;20333;-50
2024/04/14 03:36:40;;;;;;;2.22;2.03;;;;;;;;;;5675711;25;20338;-51
2024/04/14 03:39:10;;;;;;;2.53;1.90;;;;;;;;;;5674886;25;20236;-51
2024/04/14 03:41:36;;;;;;;2.90;2.22;;;;;;;;;;5669329;25;20235;-52
2024/04/14 03:44:08;;;;;;;3.40;2.35;;;;;;;;;;5674892;25;20232;-51
2024/04/14 03:46:37;;;;;;;2.38;1.75;;;;;;;;;;5659861;25;20228;-53
2024/04/14 03:49:04;;;;;;;1.95;1.75;;;;;;;;;;5664539;25;20220;-51
2024/04/14 03:51:34;;;;;;;2.05;1.85;;;;;;;;;;5674749;25;20284;-50
2024/04/14 03:54:00;;;;;;;2.72;1.70;;;;;;;;;;5675120;25;20264;-50
2024/04/14 03:56:29;;;;;;;2.38;1.70;;;;;;;;;;5675206;25;20258;-49
2024/04/14 03:58:56;;;;;;;2.50;1.67;;;;;;;;;;5675061;25;20228;-49
2024/04/14 04:01:28;;;;;;;1.60;1.50;;;;;;;;;;5664212;25;20284;-51
2024/04/14 04:03:54;;;;;;;3.42;1.52;;;;;;;;;;5658694;25;20250;-50
2024/04/14 04:06:24;;;;;;;3.25;2.50;;;;;;;;;;5673450;25;20232;-50
2024/04/14 04:08:51;;;;;;;2.85;1.80;;;;;;;;;;5654068;25;20236;-49
2024/04/14 04:11:20;;;;;;;1.73;1.63;;;;;;;;;;5656948;25;20338;-50
2024/04/14 04:13:47;;;;;;;1.73;1.45;;;;;;;;;;5678900;25;20262;-53
2024/04/14 04:16:17;;;;;;;2.17;1.92;;;;;;;;;;5678433;25;20258;-51
2024/04/14 04:18:46;;;;;;;2.83;1.80;;;;;;;;;;5678789;25;20321;-49
2024/04/14 04:21:15;;;;;;;2.05;1.83;;;;;;;;;;5678269;25;20220;-52
2024/04/14 04:23:41;;;;;;;1.70;1.60;;;;;;;;;;5678586;25;20215;-53
2024/04/14 04:26:11;;;;;;;3.78;1.60;;;;;;;;;;5667633;25;20287;-51
2024/04/14 04:28:37;;;;;;;1.85;1.35;;;;;;;;;;5668815;25;20303;-50
2024/04/14 04:31:14;;;;;;;2.80;1.65;;;;;;;;;;5667600;25;20262;-49
2024/04/14 04:33:41;;;;;;;1.98;1.80;;;;;;;;;;5678302;25;20232;-50
2024/04/14 04:36:14;;;;;;;2.38;2.00;;;;;;;;;;5667956;25;20222;-51
2024/04/14 04:38:41;;;;;;;2.55;1.50;;;;;;;;;;5672826;25;21001;-49
2024/04/14 04:41:11;;;;;;;2.13;1.70;;;;;;;;;;5665135;25;20311;-50
2024/04/14 04:43:38;;;;;;;1.90;1.80;;;;;;;;;;5665962;25;20696;-50
2024/04/14 04:46:07;;;;;;;3.28;1.70;;;;;;;;;;5639808;25;20220;-49
2024/04/14 04:48:35;;;;;;;2.15;1.90;;;;;;;;;;5652011;25;20224;-49
2024/04/14 04:51:05;;;;;;;1.60;1.50;;;;;;;;;;5659195;25;20212;-49
2024/04/14 04:53:34;;;;;;;1.70;1.50;;;;;;;;;;5639873;25;20201;-48
2024/04/14 04:56:03;;;;;;;3.15;1.60;;;;;;;;;;5675207;25;20252;-50
2024/04/14 04:58:29;;;;;;;3.38;1.83;;;;;;;;;;5662610;25;20216;-48
2024/04/14 05:00:59;;;;;;;2.55;1.90;;;;;;;;;;5644579;25;20297;-50
2024/04/14 05:03:26;;;;;;;5.13;2.08;;;;;;;;;;5649559;25;20216;-50
2024/04/14 05:05:59;;;;;;;1.63;1.52;;;;;;;;;;5661152;25;20326;-48
2024/04/14 05:08:26;;;;;;;1.67;1.58;;;;;;;;;;5649697;25;20246;-52
2024/04/14 05:11:00;;;;;;;1.50;1.40;;;;;;;;;;5678503;25;20211;-48
2024/04/14 05:13:27;;;;;;;2.58;1.60;;;;;;;;;;5678384;25;20216;-51
2024/04/14 05:15:57;;;;;;;3.47;1.58;;;;;;;;;;5645132;25;20763;-49
2024/04/14 05:18:23;;;;;;;1.40;1.30;;;;;;;;;;5664546;25;20258;-48
2024/04/14 05:20:53;;;;;;;1.40;1.30;;;;;;;;;;5661919;25;20268;-48
2024/04/14 05:23:19;;;;;;;2.22;1.27;;;;;;;;;;5663644;25;20224;-48
2024/04/14 05:25:52;;;;;;;1.52;1.40;;;;;;;;;;5663134;25;20685;-49
2024/04/14 05:28:21;;;;;;;3.38;1.63;;;;;;;;;;5639463;25;20256;-48
2024/04/14 05:30:50;;;;;;;2.75;1.67;;;;;;;;;;5654962;25;20690;-51
2024/04/14 05:33:17;;;;;;;2.15;1.50;;;;;;;;;;5678263;25;20949;-48
2024/04/14 05:35:56;;;;;;;1.67;1.58;;;;;;;;;;5647444;25;20229;-49
2024/04/14 05:38:22;;;;;;;2.60;1.70;;;;;;;;;;5639233;25;20208;-48
2024/04/14 05:40:52;;;;;;;1.67;1.58;;;;;;;;;;5655193;25;20234;-48
2024/04/14 05:43:21;;;;;;;1.65;1.42;;;;;;;;;;5638857;25;20348;-48
2024/04/14 05:45:50;;;;;;;1.75;1.65;;;;;;;;;;5654884;25;20625;-51
2024/04/14 05:48:16;;;;;;;2.15;1.80;;;;;;;;;;5646172;25;20216;-48
2024/04/14 05:50:45;;;;;;;2.47;1.40;;;;;;;;;;5677913;25;20212;-49
2024/04/14 05:53:12;;;;;;;2.47;2.13;;;;;;;;;;5677810;25;20220;-49
2024/04/14 05:55:41;;;;;;;3.05;2.00;;;;;;;;;;5661874;25;20235;-48
2024/04/14 05:58:11;;;;;;;2.53;1.40;;;;;;;;;;5656616;25;20227;-50
2024/04/14 06:00:40;;;;;;;2.92;1.85;;;;;;;;;;5651764;25;20247;-51
2024/04/14 06:03:09;;;;;;;3.08;1.98;;;;;;;;;;5677592;25;20769;-50
2024/04/14 06:05:36;;;;;;;2.08;1.60;;;;;;;;;;5664995;25;20251;-49
2024/04/14 06:08:06;;;;;;;3.22;2.30;;;;;;;;;;5638857;25;20217;-49
2024/04/14 06:10:32;;;;;;;2.22;1.90;;;;;;;;;;5638532;25;20247;-48
2024/04/14 06:13:01;;;;;;;3.20;2.50;;;;;;;;;;5638398;25;20293;-49
2024/04/14 06:15:28;;;;;;;2.65;2.08;;;;;;;;;;5638497;25;20248;-51
2024/04/14 06:18:00;;;;;;;3.40;2.63;;;;;;;;;;5638578;25;20634;-50
2024/04/14 06:20:26;;;;;;;2.88;2.08;;;;;;;;;;5638526;25;20253;-49
2024/04/14 06:22:55;;;;;;;4.07;2.10;;;;;;;;;;5655415;25;20687;-48
2024/04/14 06:25:22;;;;;;;2.53;2.20;;;;;;;;;;5668588;25;20248;-48
2024/04/14 06:27:51;;;;;;;3.63;2.35;;;;;;;;;;5654106;25;20267;-51
2024/04/14 06:30:20;;;;;;;6.68;2.58;;;;;;;;;;5645483;25;20258;-49
2024/04/14 06:32:46;;;;;;;7.07;3.00;;;;;;;;;;5677120;25;20267;-52
2024/04/14 06:35:18;;;;;;;7.63;2.88;;;;;;;;;;5654830;25;20268;-49
2024/04/14 06:37:45;;;;;;;4.13;2.50;;;;;;;;;;5638376;25;20738;-50
2024/04/14 06:40:15;;;;;;;6.88;3.08;;;;;;;;;;5643730;25;20255;-47
2024/04/14 06:42:41;;;;;;;3.28;2.50;;;;;;;;;;5663066;25;20292;-47
2024/04/14 06:45:11;;;;;;;5.45;3.00;;;;;;;;;;5675363;25;20223;-47
2024/04/14 06:47:37;;;;;;;6.82;2.78;;;;;;;;;;5676951;25;20687;-47
2024/04/14 06:50:08;;;;;;;3.25;2.30;;;;;;;;;;5657032;25;20968;-47
2024/04/14 06:52:37;;;;;;;2.72;2.30;;;;;;;;;;5666155;25;20296;-48
2024/04/14 06:55:11;;;;;;;2.45;1.98;;;;;;;;;;5676703;25;20329;-49
2024/04/14 06:57:37;;;;;;;5.30;2.92;;;;;;;;;;5676873;25;20706;-47
2024/04/14 07:00:08;;;;;;;4.75;2.92;;;;;;;;;;5660339;25;20221;-49
2024/04/14 07:02:35;;;;;;;3.47;2.63;;;;;;;;;;5664552;25;20263;-49
2024/04/14 07:05:04;;;;;;;2.67;2.38;;;;;;;;;;5673108;25;20286;-48
2024/04/14 07:07:31;;;;;;;3.42;3.13;;;;;;;;;;5676693;25;20688;-48
2024/04/14 07:10:03;;;;;;;5.75;2.90;;;;;;;;;;5642145;25;20224;-47
2024/04/14 07:12:29;;;;;;;3.97;2.88;;;;;;;;;;5637652;25;20217;-48
2024/04/14 07:14:58;;;;;;;3.35;3.03;;;;;;;;;;5637603;25;20758;-49
2024/04/14 07:17:25;;;;;;;4.82;3.20;;;;;;;;;;5637589;25;20683;-51
2024/04/14 07:19:54;;;;;;;5.57;3.70;;;;;;;;;;5670272;25;20325;-49
2024/04/14 07:22:20;;;;;;;6.55;3.10;;;;;;;;;;5652101;25;20276;-52
2024/04/14 07:24:51;;;;;;;4.32;3.35;;;;;;;;;;5668988;25;20270;-50
2024/04/14 07:27:20;;;;;;;3.10;2.80;;;;;;;;;;5645071;25;20882;-48
2024/04/14 07:29:49;;;;;;;6.00;3.80;;;;;;;;;;5661190;25;20233;-52
2024/04/14 07:32:15;;;;;;;7.80;3.67;;;;;;;;;;5637412;25;20696;-52
2024/04/14 07:34:44;;;;;;;4.47;2.95;;;;;;;;;;5637381;25;20273;-51
2024/04/14 07:37:11;;;;;;;3.35;2.72;;;;;;;;;;5653397;25;20251;-49
2024/04/14 07:39:40;;;;;;;5.05;3.45;;;;;;;;;;5636325;25;20665;-48
2024/04/14 07:42:08;;;;;;;5.78;3.65;;;;;;;;;;5636283;25;20220;-50
2024/04/14 07:44:40;;;;;;;3.60;2.63;;;;;;;;;;5637224;25;20220;-48
2024/04/14 07:47:07;;;;;;;6.68;4.18;;;;;;;;;;5637132;25;20345;-50
2024/04/14 07:49:36;;;;;;;3.80;2.97;;;;;;;;;;5648723;25;20777;-49
2024/04/14 07:52:03;;;;;;;4.57;2.97;;;;;;;;;;5676058;25;20262;-54
2024/04/14 07:54:32;;;;;;;4.13;3.60;;;;;;;;;;5675907;25;20211;-49
2024/04/14 07:57:00;;;;;;;6.22;3.80;;;;;;;;;;5673562;25;20250;-53
2024/04/14 07:59:29;;;;;;;7.10;2.72;;;;;;;;;;5636827;25;20217;-49
2024/04/14 08:01:58;;;;;;;6.07;3.25;;;;;;;;;;5636746;25;20248;-49
2024/04/14 08:04:28;;;;;;;5.72;3.63;;;;;;;;;;5662200;25;20284;-51
2024/04/14 08:06:54;;;;;;;6.72;4.22;;;;;;;;;;5675616;25;20212;-49
2024/04/14 08:09:23;;;;;;;4.15;3.60;;;;;;;;;;5675805;25;20682;-51
2024/04/14 08:11:52;;;;;;;5.75;3.65;;;;;;;;;;5659266;25;20224;-50
2024/04/14 08:14:19;;;;;;;4.80;3.30;;;;;;;;;;5636715;25;20212;-50
2024/04/14 08:16:48;;;;;;;3.58;2.90;;;;;;;;;;5636482;25;20684;-52
2024/04/14 08:19:17;;;;;;;3.95;2.60;;;;;;;;;;5636439;25;20595;-52
2024/04/14 08:21:46;;;;;;;3.97;3.58;;;;;;;;;;5636756;25;20271;-53
2024/04/14 08:24:13;;;;;;;7.13;3.28;;;;;;;;;;5636445;25;20730;-51
2024/04/14 08:26:42;;;;;;;5.90;3.10;;;;;;;;;;5665908;25;20259;-50
2024/04/14 08:29:08;;;;;;;3.17;2.78;;;;;;;;;;5675326;25;20259;-48
2024/04/14 08:31:39;;;;;;;5.20;2.88;;;;;;;;;;5675055;25;20280;-50
2024/04/14 08:34:06;;;;;;;2.80;2.20;;;;;;;;;;5675186;25;20254;-52
2024/04/14 08:36:38;;;;;;;5.68;3.28;;;;;;;;;;5675283;25;20264;-54
2024/04/14 08:39:04;;;;;;;3.85;2.72;;;;;;;;;;5655477;25;20256;-49
2024/04/14 08:41:36;;;;;;;5.30;2.78;;;;;;;;;;5636017;25;20267;-53
2024/04/14 08:44:03;;;;;;;4.55;2.30;;;;;;;;;;5636188;25;20209;-53
2024/04/14 08:46:32;;;;;;;2.30;2.10;;;;;;;;;;5635900;25;20296;-48
2024/04/14 08:48:59;;;;;;;4.68;2.60;;;;;;;;;;5636029;25;20216;-51
2024/04/14 08:51:29;;;;;;;1.85;1.70;;;;;;;;;;5636422;25;20297;-51
2024/04/14 08:54:00;;;;;;;3.45;2.17;;;;;;;;;;5657725;25;20259;-51
2024/04/14 08:56:30;;;;;;;1.70;1.60;;;;;;;;;;5679989;25;20571;-49
2024/04/14 08:59:00;;;;;;;4.55;2.30;;;;;;;;;;5678893;25;20203;-50
2024/04/14 09:01:29;;;;;;;4.25;1.83;;;;;;;;;;5678640;25;20269;-48
2024/04/14 09:03:56;;;;;;;2.97;2.08;;;;;;;;;;5678605;25;20544;-52
2024/04/14 09:06:26;;;;;;;4.47;1.80;;;;;;;;;;5678692;25;20242;-49
2024/04/14 09:08:53;;;;;;;2.92;1.95;;;;;;;;;;5645879;25;20571;-50
2024/04/14 09:11:25;;;;;;;3.25;1.80;;;;;;;;;;5639678;25;20605;-49
2024/04/14 09:13:51;;;;;;;3.63;2.90;;;;;;;;;;5639715;25;20213;-51
2024/04/14 09:16:21;;;;;;;3.72;2.10;;;;;;;;;;5639612;25;20265;-49
2024/04/14 09:18:47;;;;;;;6.63;3.08;;;;;;;;;;5639664;25;20241;-48
2024/04/14 09:21:16;;;;;;;3.05;2.30;;;;;;;;;;5639551;25;20257;-48
2024/04/14 09:23:43;;;;;;;5.93;3.88;;;;;;;;;;5639541;25;20209;-48
2024/04/14 09:26:12;;;;;;;2.83;2.63;;;;;;;;;;5639494;25;20707;-49
2024/04/14 09:28:41;;;;;;;2.30;1.90;;;;;;;;;;5640102;25;20545;-48
2024/04/14 09:31:10;;;;;;;6.32;2.28;;;;;;;;;;5643748;25;20623;-50
2024/04/14 09:33:37;;;;;;;5.60;2.50;;;;;;;;;;5678405;25;20736;-51
2024/04/14 09:36:06;;;;;;;2.60;2.22;;;;;;;;;;5662121;25;20228;-48
2024/04/14 09:38:33;;;;;;;2.88;1.80;;;;;;;;;;5678379;25;20690;-49
2024/04/14 09:41:02;;;;;;;2.42;2.22;;;;;;;;;;5678161;25;20211;-48
2024/04/14 09:43:31;;;;;;;3.78;2.10;;;;;;;;;;5651525;25;20549;-49
2024/04/14 09:46:05;;;;;;;2.95;2.10;;;;;;;;;;5639557;25;20324;-48
2024/04/14 09:48:33;;;;;;;3.72;2.28;;;;;;;;;;5639321;25;20239;-48
2024/04/14 09:51:03;;;;;;;3.08;2.00;;;;;;;;;;5639015;25;20213;-49
2024/04/14 09:53:33;;;;;;;3.10;2.22;;;;;;;;;;5649463;25;20267;-48
2024/04/14 09:56:00;;;;;;;4.60;2.30;;;;;;;;;;5678017;25;20319;-49
2024/04/14 09:58:29;;;;;;;3.80;1.75;;;;;;;;;;5677802;25;20710;-50
2024/04/14 10:01:02;;;;;;;2.28;1.85;;;;;;;;;;5677699;25;20216;-48
2024/04/14 10:03:33;;;;;;;2.83;2.20;;;;;;;;;;5676819;25;20259;-50
2024/04/14 10:06:01;;;;;;;3.10;2.80;;;;;;;;;;5645623;25;20217;-50
2024/04/14 10:08:33;;;;;;;4.82;2.97;;;;;;;;;;5678042;25;20212;-50
2024/04/14 10:11:03;;;;;;;2.67;2.47;;;;;;;;;;5675204;25;20220;-50
2024/04/14 10:13:32;;;;;;;3.47;2.58;;;;;;;;;;5638670;25;20312;-48
2024/04/14 10:16:02;;;;;;;2.50;2.22;;;;;;;;;;5638887;25;20209;-48
2024/04/14 10:18:34;;;;;;;3.50;2.45;;;;;;;;;;5638750;25;20209;-51
2024/04/14 10:21:02;;;;;;;5.45;2.67;;;;;;;;;;5638504;25;20213;-49
2024/04/14 10:23:32;;;;;;;4.97;2.95;;;;;;;;;;5638682;25;20247;-52
2024/04/14 10:25:58;;;;;;;2.70;2.50;;;;;;;;;;5657137;25;20215;-51
2024/04/14 10:28:28;;;;;;;2.25;2.05;;;;;;;;;;5677450;25;20208;-49
2024/04/14 10:31:04;;;;;;;2.83;2.40;;;;;;;;;;5677317;25;20258;-53
2024/04/14 10:33:33;;;;;;;2.75;1.67;;;;;;;;;;5677586;25;20568;-49
2024/04/14 10:36:01;;;;;;;2.53;1.70;;;;;;;;;;5677448;25;20262;-48
2024/04/14 10:38:32;;;;;;;2.10;1.67;;;;;;;;;;5677346;25;20260;-52
2024/04/14 10:40:59;;;;;;;4.10;2.45;;;;;;;;;;5643334;25;20685;-50
2024/04/14 10:43:29;;;;;;;2.08;1.55;;;;;;;;;;5637841;25;20315;-49
2024/04/14 10:46:02;;;;;;;2.13;2.03;;;;;;;;;;5638229;25;20272;-53
2024/04/14 10:48:31;;;;;;;3.90;2.08;;;;;;;;;;5638464;25;20248;-52
2024/04/14 10:51:01;;;;;;;3.20;2.22;;;;;;;;;;5638135;25;20209;-49
2024/04/14 10:53:33;;;;;;;2.20;2.00;;;;;;;;;;5638411;25;20209;-48
2024/04/14 10:56:00;;;;;;;2.70;2.10;;;;;;;;;;5638145;25;20236;-49
2024/04/14 10:58:30;;;;;;;2.72;1.88;;;;;;;;;;5638057;25;20251;-49
2024/04/14 11:00:57;;;;;;;2.25;1.98;;;;;;;;;;5638021;25;20564;-49
2024/04/14 11:03:29;;;;;;;2.92;2.53;;;;;;;;;;5638294;25;20625;-51
2024/04/14 11:05:56;;;;;;;5.38;2.15;;;;;;;;;;5638282;25;20256;-53
2024/04/14 11:08:26;;;;;;;2.28;2.10;;;;;;;;;;5637996;25;20251;-54
2024/04/14 11:10:53;;;;;;;2.08;1.77;;;;;;;;;;5638021;25;20225;-50
2024/04/14 11:13:27;;;;;;;3.08;2.35;;;;;;;;;;5637820;25;20220;-50
2024/04/14 11:15:57;;;;;;;3.17;2.03;;;;;;;;;;5637481;25;20248;-51
2024/04/14 11:18:31;;;;;;;2.95;2.17;;;;;;;;;;5637873;25;20221;-50
2024/04/14 11:20:58;;;;;;;2.28;2.08;;;;;;;;;;5637647;25;20714;-51
2024/04/14 11:23:29;;;;;;;2.08;1.70;;;;;;;;;;5637867;25;20209;-54
2024/04/14 11:25:55;;;;;;;3.47;2.47;;;;;;;;;;5637881;25;20248;-49
2024/04/14 11:28:25;;;;;;;1.92;1.70;;;;;;;;;;5637668;25;20260;-49
2024/04/14 11:30:52;;;;;;;2.00;1.67;;;;;;;;;;5637677;25;20217;-49
2024/04/14 11:33:24;;;;;;;4.60;1.80;;;;;;;;;;5637370;25;20587;-52
2024/04/14 11:35:58;;;;;;;5.57;2.60;;;;;;;;;;5637611;25;20317;-49
2024/04/14 11:38:28;;;;;;;3.20;1.70;;;;;;;;;;5637490;25;20211;-51
2024/04/14 11:40:55;;;;;;;1.60;1.50;;;;;;;;;;5637186;25;20205;-51
2024/04/14 11:43:24;;;;;;;2.05;1.95;;;;;;;;;;5637517;25;20212;-50
2024/04/14 11:45:51;;;;;;;2.63;2.25;;;;;;;;;;5637172;25;20220;-50
2024/04/14 11:48:24;;;;;;;2.20;2.03;;;;;;;;;;5636933;25;20221;-53
2024/04/14 11:50:53;;;;;;;2.15;1.95;;;;;;;;;;5637061;25;20213;-51
2024/04/14 11:53:23;;;;;;;2.50;2.20;;;;;;;;;;5637170;25;20236;-48
2024/04/14 11:55:52;;;;;;;3.65;2.50;;;;;;;;;;5637052;25;20224;-50
2024/04/14 11:58:22;;;;;;;2.13;1.98;;;;;;;;;;5660406;25;20224;-52
2024/04/14 12:00:51;;;;;;;3.88;1.75;;;;;;;;;;5675783;25;20250;-51
2024/04/14 12:03:18;;;;;;;3.78;2.38;;;;;;;;;;5637043;25;20603;-49
2024/04/14 12:05:47;;;;;;;3.22;1.63;;;;;;;;;;5637327;25;20783;-51
2024/04/14 12:08:14;;;;;;;1.95;1.73;;;;;;;;;;5636902;25;20205;-52
2024/04/14 12:10:46;;;;;;;4.50;2.38;;;;;;;;;;5636692;25;20334;-50
2024/04/14 12:13:13;;;;;;;1.70;1.60;;;;;;;;;;5636910;25;20221;-51
2024/04/14 12:15:45;;;;;;;4.18;2.17;;;;;;;;;;5636098;25;20221;-49
2024/04/14 12:18:12;;;;;;;1.92;1.80;;;;;;;;;;5636602;25;20264;-48
2024/04/14 12:20:41;;;;;;;4.57;2.47;;;;;;;;;;5636622;25;20255;-50
2024/04/14 12:23:07;;;;;;;4.72;1.92;;;;;;;;;;5636475;25;20221;-52
2024/04/14 12:25:37;;;;;;;3.05;2.67;;;;;;;;;;5636245;25;20224;-49
2024/04/14 12:28:06;;;;;;;3.25;2.20;;;;;;;;;;5639512;25;20209;-52
2024/04/14 12:30:36;;;;;;;2.78;1.95;;;;;;;;;;5640362;25;20213;-48
2024/04/14 12:33:03;;;;;;;4.22;3.22;;;;;;;;;;5640089;25;20622;-52
2024/04/14 12:35:32;;;;;;;2.60;2.38;;;;;;;;;;5640093;25;20205;-52
2024/04/14 12:37:59;;;;;;;2.40;1.95;;;;;;;;;;5639902;25;20209;-53
2024/04/14 12:40:28;;;;;;;2.63;1.90;;;;;;;;;;5639881;25;20244;-52
2024/04/14 12:42:54;;;;;;;5.30;2.28;;;;;;;;;;5640183;25;20597;-49
2024/04/14 12:45:28;;;;;;;4.88;2.63;;;;;;;;;;5664130;25;20262;-51
2024/04/14 12:47:54;;;;;;;2.13;1.92;;;;;;;;;;5679073;25;20208;-50
2024/04/14 12:50:24;;;;;;;2.10;2.00;;;;;;;;;;5678935;25;20615;-49
2024/04/14 12:52:50;;;;;;;2.80;2.47;;;;;;;;;;5678942;25;20266;-52
2024/04/14 12:55:19;;;;;;;2.95;2.20;;;;;;;;;;5678836;25;20212;-48
2024/04/14 12:57:46;;;;;;;4.32;2.10;;;;;;;;;;5679168;25;20725;-49
2024/04/14 13:00:15;;;;;;;3.65;2.35;;;;;;;;;;5673234;25;20270;-50
2024/04/14 13:02:44;;;;;;;2.33;1.98;;;;;;;;;;5639948;25;20715;-50
2024/04/14 13:05:13;;;;;;;2.00;1.80;;;;;;;;;;5639797;25;20212;-50
2024/04/14 13:07:40;;;;;;;1.75;1.48;;;;;;;;;;5640000;25;20244;-51
2024/04/14 13:10:10;;;;;;;4.03;2.75;;;;;;;;;;5639844;25;20273;-48
2024/04/14 13:12:37;;;;;;;2.50;2.30;;;;;;;;;;5639619;25;20704;-50
2024/04/14 13:15:07;;;;;;;2.83;2.45;;;;;;;;;;5639822;25;20318;-52
2024/04/14 13:17:35;;;;;;;2.72;2.25;;;;;;;;;;5639570;25;20255;-51
2024/04/14 13:20:09;;;;;;;2.22;2.03;;;;;;;;;;5639452;25;20213;-48
2024/04/14 13:22:36;;;;;;;3.63;2.92;;;;;;;;;;5639621;25;20217;-48
2024/04/14 13:25:05;;;;;;;7.10;2.63;;;;;;;;;;5639460;25;20566;-50
2024/04/14 13:27:32;;;;;;;3.30;2.75;;;;;;;;;;5639443;25;20422;-50
2024/04/14 13:30:02;;;;;;;2.60;2.00;;;;;;;;;;5639318;25;20213;-49
2024/04/14 13:32:29;;;;;;;2.25;2.05;;;;;;;;;;5639345;25;20271;-51
2024/04/14 13:34:58;;;;;;;1.85;1.75;;;;;;;;;;5639307;25;20430;-48
2024/04/14 13:37:27;;;;;;;3.78;2.40;;;;;;;;;;5639677;25;20716;-51
2024/04/14 13:39:56;;;;;;;5.25;2.10;;;;;;;;;;5639103;25;20273;-50
2024/04/14 13:42:23;;;;;;;3.15;2.47;;;;;;;;;;5638990;25;20267;-53
2024/04/14 13:44:52;;;;;;;2.53;2.33;;;;;;;;;;5639275;25;20268;-52
2024/04/14 13:47:19;;;;;;;3.78;2.20;;;;;;;;;;5639585;25;20213;-51
2024/04/14 13:49:48;;;;;;;2.35;2.20;;;;;;;;;;5639188;25;20213;-49
2024/04/14 13:52:25;;;;;;;2.42;2.10;;;;;;;;;;5638990;25;20704;-49
2024/04/14 13:54:58;;;;;;;2.28;2.17;;;;;;;;;;5639019;25;20622;-48
2024/04/14 13:57:25;;;;;;;2.85;2.20;;;;;;;;;;5639078;25;20262;-48
2024/04/14 13:59:54;;;;;;;2.42;2.05;;;;;;;;;;5638930;25;20684;-48
2024/04/14 14:02:21;;;;;;;2.58;1.90;;;;;;;;;;5639053;25;20225;-48
2024/04/14 14:04:50;;;;;;;2.60;2.38;;;;;;;;;;5638936;25;20213;-48
2024/04/14 14:07:19;;;;;;;2.97;2.10;;;;;;;;;;5677699;25;20557;-50
2024/04/14 14:09:48;;;;;;;2.85;2.55;;;;;;;;;;5677950;25;20733;-48
2024/04/14 14:12:18;;;;;;;2.97;2.72;;;;;;;;;;5677614;25;20355;-50
2024/04/14 14:14:47;;;;;;;2.25;2.05;;;;;;;;;;5677653;25;20339;-48
2024/04/14 14:17:16;;;;;;;2.30;1.90;;;;;;;;;;5677628;25;20207;-48
2024/04/14 14:19:45;;;;;;;2.50;1.70;;;;;;;;;;5677578;25;20212;-50
2024/04/14 14:22:14;;;;;;;3.97;2.17;;;;;;;;;;5677328;25;20732;-49
2024/04/14 14:24:41;;;;;;;2.40;1.70;;;;;;;;;;5648431;25;20337;-51
2024/04/14 14:27:10;;;;;;;1.98;1.85;;;;;;;;;;5638597;25;20260;-49
2024/04/14 14:29:39;;;;;;;2.83;1.50;;;;;;;;;;5638609;25;20209;-48
2024/04/14 14:32:09;;;;;;;2.92;1.70;;;;;;;;;;5638397;25;20221;-48
2024/04/14 14:37:23;;;;;;;3.13;2.00;;;;;;;;;;5649265;25;20967;-50
2024/04/14 14:39:51;;;;;;;1.70;1.60;;;;;;;;;;5677326;25;20244;-50
2024/04/14 14:42:20;;;;;;;1.95;1.67;;;;;;;;;;5677283;25;20220;-48
2024/04/14 14:44:52;;;;;;;2.17;1.90;;;;;;;;;;5677297;25;20271;-51
2024/04/14 14:47:18;;;;;;;3.28;1.90;;;;;;;;;;5677382;25;20959;-51
2024/04/14 14:49:47;;;;;;;1.98;1.80;;;;;;;;;;5676291;25;20216;-51
2024/04/14 14:52:14;;;;;;;9.48;2.22;;;;;;;;;;5677076;25;20232;-49
2024/04/14 14:54:43;;;;;;;2.92;2.28;;;;;;;;;;5677189;25;20208;-50